createdAt,value
2023-03-19T00:00:51.812Z,101243.06
2023-03-19T00:03:21.874Z,101241.59
2023-03-19T00:05:53.672Z,101240.81
2023-03-19T00:08:22.875Z,101243.06
2023-03-19T00:10:52.902Z,101227.84
2023-03-19T00:13:23.106Z,101225.16
2023-03-19T00:15:50.621Z,101222.94
2023-03-19T00:18:18.057Z,101223.81
2023-03-19T00:20:45.984Z,101218.59
2023-03-19T00:23:14.227Z,101209.66
2023-03-19T00:25:42.202Z,101221.22
2023-03-19T00:28:10.105Z,101224.66
2023-03-19T00:30:37.667Z,101218.88
2023-03-19T00:33:05.194Z,101215.47
2023-03-19T00:35:32.990Z,101202.19
2023-03-19T00:38:00.601Z,101199.81
2023-03-19T00:40:28.344Z,101200.41
2023-03-19T00:42:55.934Z,101198.63
2023-03-19T00:45:23.942Z,101195.94
2023-03-19T00:47:51.645Z,101200.22
2023-03-19T00:50:19.449Z,101205.28
2023-03-19T00:52:47.004Z,101199.34
2023-03-19T00:55:14.535Z,101199.94
2023-03-19T00:57:42.039Z,101192.06
2023-03-19T01:00:10.917Z,101189.34
2023-03-19T01:02:38.453Z,101192.94
2023-03-19T01:05:08.275Z,101189.19
2023-03-19T01:07:35.937Z,101191.88
2023-03-19T01:10:03.562Z,101198.72
2023-03-19T01:12:31.193Z,101193.19
2023-03-19T01:14:58.706Z,101191.56
2023-03-19T01:17:26.489Z,101185.94
2023-03-19T01:19:54.131Z,101196.75
2023-03-19T01:22:21.835Z,101181.31
2023-03-19T01:24:55.456Z,101182.63
2023-03-19T01:27:23.250Z,101189.19
2023-03-19T01:29:51.639Z,101182.94
2023-03-19T01:32:31.592Z,101179.06
2023-03-19T01:35:30.682Z,101190.53
2023-03-19T01:37:58.628Z,101184.84
2023-03-19T01:40:26.105Z,101177.75
2023-03-19T01:43:15.356Z,101181.78
2023-03-19T01:45:52.891Z,101184.63
2023-03-19T01:49:00.071Z,101178.59
2023-03-19T01:51:38.025Z,101178.91
2023-03-19T01:54:15.697Z,101172.81
2023-03-19T01:56:52.051Z,101172.06
2023-03-19T01:59:54.862Z,101168.94
2023-03-19T02:02:55.040Z,101170.44
2023-03-19T02:05:47.022Z,101171.19
2023-03-19T02:08:17.782Z,101163.59
2023-03-19T02:10:47.976Z,101154.94
2023-03-19T02:13:16.292Z,101150.59
2023-03-19T02:15:44.071Z,101147.53
2023-03-19T02:18:12.170Z,101147.69
2023-03-19T02:21:04.130Z,101160.63
2023-03-19T02:24:01.730Z,101155.59
2023-03-19T02:26:48.258Z,101138.78
2023-03-19T02:29:16.732Z,101137.28
2023-03-19T02:31:45.586Z,101138.00
2023-03-19T02:34:19.150Z,101152.56
2023-03-19T02:36:54.613Z,101149.72
2023-03-19T02:40:04.721Z,101150.19
2023-03-19T02:42:32.288Z,101140.81
2023-03-19T02:44:59.839Z,101140.00
2023-03-19T02:47:27.844Z,101142.09
2023-03-19T02:49:55.704Z,101138.03
2023-03-19T02:52:24.125Z,101128.84
2023-03-19T02:54:51.595Z,101125.13
2023-03-19T02:57:19.169Z,101128.25
2023-03-19T02:59:46.649Z,101130.47
2023-03-19T03:02:14.357Z,101129.44
2023-03-19T03:04:42.211Z,101135.13
2023-03-19T03:07:09.762Z,101134.38
2023-03-19T03:09:37.360Z,101130.38
2023-03-19T03:12:06.172Z,101118.34
2023-03-19T03:14:33.721Z,101117.03
2023-03-19T03:17:01.229Z,101124.19
2023-03-19T03:19:28.766Z,101117.66
2023-03-19T03:21:56.372Z,101118.41
2023-03-19T03:24:24.367Z,101111.88
2023-03-19T03:26:51.854Z,101110.81
2023-03-19T03:29:21.558Z,101119.91
2023-03-19T03:31:49.229Z,101108.59
2023-03-19T03:34:16.939Z,101118.59
2023-03-19T03:36:46.374Z,101109.38
2023-03-19T03:39:14.334Z,101114.63
2023-03-19T03:41:42.566Z,101107.91
2023-03-19T03:44:10.482Z,101110.72
2023-03-19T03:46:40.530Z,101109.69
2023-03-19T03:49:08.758Z,101112.19
2023-03-19T03:51:36.731Z,101112.75
2023-03-19T03:54:04.532Z,101107.91
2023-03-19T03:56:33.356Z,101107.44
2023-03-19T03:59:01.345Z,101107.00
2023-03-19T04:01:28.813Z,101107.72
2023-03-19T04:03:58.045Z,101105.94
2023-03-19T04:06:27.617Z,101099.34
2023-03-19T04:09:21.016Z,101104.88
2023-03-19T04:11:51.354Z,101094.94
2023-03-19T04:14:19.811Z,101100.00
2023-03-19T04:16:47.715Z,101099.47
2023-03-19T04:19:15.735Z,101102.28
2023-03-19T04:21:43.211Z,101093.28
2023-03-19T04:24:11.595Z,101087.97
2023-03-19T04:26:39.920Z,101091.88
2023-03-19T04:29:08.858Z,101086.25
2023-03-19T04:31:37.404Z,101076.47
2023-03-19T04:34:04.911Z,101082.91
2023-03-19T04:36:32.401Z,101075.06
2023-03-19T04:39:00.395Z,101077.13
2023-03-19T04:41:28.100Z,101074.75
2023-03-19T04:44:09.715Z,101081.84
2023-03-19T04:46:40.213Z,101076.56
2023-03-19T04:49:08.600Z,101072.06
2023-03-19T04:51:36.561Z,101075.00
2023-03-19T04:54:05.508Z,101079.72
2023-03-19T04:56:33.110Z,101078.97
2023-03-19T04:59:00.896Z,101077.78
2023-03-19T05:01:28.522Z,101082.81
2023-03-19T05:04:02.562Z,101084.09
2023-03-19T05:06:32.894Z,101079.41
2023-03-19T05:09:01.000Z,101084.28
2023-03-19T05:11:28.715Z,101076.31
2023-03-19T05:14:04.689Z,101071.22
2023-03-19T05:16:59.997Z,101057.03
2023-03-19T05:19:34.302Z,101059.44
2023-03-19T05:22:02.577Z,101065.97
2023-03-19T05:24:30.648Z,101068.03
2023-03-19T05:27:01.618Z,101049.09
2023-03-19T05:29:29.210Z,101055.06
2023-03-19T05:32:16.133Z,101050.88
2023-03-19T05:34:44.713Z,101053.38
2023-03-19T05:37:13.159Z,101047.44
2023-03-19T05:39:41.928Z,101046.22
2023-03-19T05:42:11.494Z,101044.09
2023-03-19T05:44:38.960Z,101037.03
2023-03-19T05:47:16.396Z,101036.09
2023-03-19T05:49:49.486Z,101030.53
2023-03-19T05:52:17.489Z,101024.41
2023-03-19T05:54:49.431Z,101019.41
2023-03-19T05:57:30.929Z,101017.03
2023-03-19T06:00:08.382Z,101009.03
2023-03-19T06:02:36.748Z,101011.50
2023-03-19T06:05:24.493Z,101013.38
2023-03-19T06:07:55.079Z,101008.88
2023-03-19T06:10:31.076Z,101001.31
2023-03-19T06:13:01.839Z,100993.91
2023-03-19T06:15:42.290Z,100990.13
2023-03-19T06:18:33.598Z,100992.84
2023-03-19T06:21:06.179Z,100984.03
2023-03-19T06:23:34.296Z,100978.94
2023-03-19T06:26:05.891Z,100973.09
2023-03-19T06:28:41.043Z,100976.41
2023-03-19T06:31:09.065Z,100974.47
2023-03-19T06:33:55.861Z,100965.34
2023-03-19T06:36:27.423Z,100971.88
2023-03-19T06:38:55.244Z,100968.75
2023-03-19T06:41:22.800Z,100958.59
2023-03-19T06:43:51.042Z,100960.72
2023-03-19T06:46:18.598Z,100952.78
2023-03-19T06:48:46.129Z,100956.56
2023-03-19T06:51:13.604Z,100948.13
2023-03-19T06:53:41.375Z,100946.00
2023-03-19T06:56:09.422Z,100951.44
2023-03-19T06:58:37.115Z,100945.34
2023-03-19T07:01:04.905Z,100941.47
2023-03-19T07:03:32.460Z,100929.38
2023-03-19T07:06:00.049Z,100933.28
2023-03-19T07:08:30.064Z,100930.16
2023-03-19T07:11:03.108Z,100926.34
2023-03-19T07:13:30.802Z,100922.56
2023-03-19T07:15:58.341Z,100923.97
2023-03-19T07:18:26.545Z,100922.53
2023-03-19T07:20:54.287Z,100928.31
2023-03-19T07:23:22.193Z,100914.66
2023-03-19T07:25:49.797Z,100920.31
2023-03-19T07:28:17.410Z,100912.63
2023-03-19T07:30:44.991Z,100903.28
2023-03-19T07:33:12.604Z,100911.63
2023-03-19T07:35:40.187Z,100916.13
2023-03-19T07:38:07.772Z,100908.13
2023-03-19T07:40:35.575Z,100904.72
2023-03-19T07:43:03.904Z,100905.00
2023-03-19T07:45:31.705Z,100898.53
2023-03-19T07:48:03.404Z,100906.31
2023-03-19T07:50:31.500Z,100901.88
2023-03-19T07:52:59.207Z,100898.13
2023-03-19T07:55:26.944Z,100892.44
2023-03-19T07:57:54.536Z,100891.66
2023-03-19T08:00:22.664Z,100900.81
2023-03-19T08:02:50.252Z,100888.91
2023-03-19T08:05:17.830Z,100891.56
2023-03-19T08:07:45.940Z,100896.63
2023-03-19T08:10:13.533Z,100884.78
2023-03-19T08:12:41.377Z,100874.38
2023-03-19T08:15:11.540Z,100876.47
2023-03-19T08:17:39.414Z,100868.44
2023-03-19T08:20:12.318Z,100870.97
2023-03-19T08:22:40.728Z,100856.34
2023-03-19T08:25:09.622Z,100850.53
2023-03-19T08:27:37.479Z,100851.84
2023-03-19T08:30:07.607Z,100844.28
2023-03-19T08:32:35.736Z,100847.22
2023-03-19T08:35:04.253Z,100845.22
2023-03-19T08:37:32.279Z,100844.47
2023-03-19T08:39:59.808Z,100833.28
2023-03-19T08:42:27.337Z,100835.03
2023-03-19T08:44:55.032Z,100831.66
2023-03-19T08:47:24.489Z,100825.38
2023-03-19T08:49:52.856Z,100821.94
2023-03-19T08:52:27.973Z,100821.13
2023-03-19T08:54:55.468Z,100810.84
2023-03-19T08:57:53.383Z,100806.94
2023-03-19T09:33:40.817Z,100759.59
2023-03-19T09:53:07.218Z,100751.03
2023-03-19T09:55:58.979Z,100738.13
2023-03-19T09:58:33.232Z,100740.63
2023-03-19T10:01:01.483Z,100736.41
2023-03-19T10:03:32.017Z,100738.91
2023-03-19T10:06:29.813Z,100734.56
2023-03-19T10:09:17.666Z,100735.59
2023-03-19T10:11:50.558Z,100729.06
2023-03-19T10:14:44.750Z,100729.03
2023-03-19T10:17:19.259Z,100724.78
2023-03-19T10:20:02.990Z,100725.84
2023-03-19T10:22:38.555Z,100718.72
2023-03-19T10:25:11.853Z,100715.19
2023-03-19T10:27:42.801Z,100707.16
2023-03-19T10:30:16.928Z,100711.13
2023-03-19T10:32:50.803Z,100714.19
2023-03-19T10:35:23.569Z,100706.44
2023-03-19T10:42:34.313Z,100693.91
2023-03-19T10:45:23.498Z,100701.03
2023-03-19T10:47:53.066Z,100695.22
2023-03-19T10:50:24.001Z,100691.28
2023-03-19T10:53:15.648Z,100688.69
2023-03-19T10:56:16.478Z,100685.41
2023-03-19T10:58:57.664Z,100666.97
2023-03-19T11:01:33.327Z,100679.72
2023-03-19T11:04:11.536Z,100673.47
2023-03-19T11:06:39.393Z,100664.50
2023-03-19T11:09:10.669Z,100660.25
2023-03-19T11:11:50.845Z,100668.00
2023-03-19T11:14:24.108Z,100656.94
2023-03-19T11:16:59.405Z,100660.78
2023-03-19T11:19:30.123Z,100652.78
2023-03-19T11:22:09.680Z,100654.63
2023-03-19T11:24:40.392Z,100658.75
2023-03-19T11:27:10.016Z,100656.34
2023-03-19T11:29:45.294Z,100640.91
2023-03-19T11:32:21.721Z,100637.66
2023-03-19T11:35:02.900Z,100643.63
2023-03-19T11:37:55.945Z,100643.19
2023-03-19T11:40:37.562Z,100630.78
2023-03-19T11:43:14.234Z,100635.47
2023-03-19T11:46:05.661Z,100631.59
2023-03-19T11:48:54.552Z,100630.41
2023-03-19T11:51:30.304Z,100624.84
2023-03-19T11:54:18.052Z,100624.59
2023-03-19T11:56:56.270Z,100627.72
2023-03-19T11:59:32.925Z,100620.44
2023-03-19T12:02:19.024Z,100610.09
2023-03-19T12:04:49.748Z,100606.47
2023-03-19T12:07:23.080Z,100608.75
2023-03-19T12:10:10.483Z,100595.34
2023-03-19T12:12:49.371Z,100595.59
2023-03-19T12:15:42.399Z,100594.03
2023-03-19T12:18:10.001Z,100591.75
2023-03-19T12:20:40.563Z,100585.84
2023-03-19T12:23:25.197Z,100581.13
2023-03-19T12:26:04.746Z,100572.50
2023-03-19T12:28:37.233Z,100572.59
2023-03-19T12:31:34.004Z,100561.72
2023-03-19T12:34:11.592Z,100562.47
2023-03-19T12:37:04.829Z,100555.72
2023-03-19T12:39:38.461Z,100558.66
2023-03-19T12:42:13.557Z,100549.50
2023-03-19T12:44:46.209Z,100549.38
2023-03-19T12:47:22.575Z,100554.66
2023-03-19T12:50:08.574Z,100543.81
2023-03-19T12:52:39.612Z,100533.38
2023-03-19T12:55:25.760Z,100551.00
2023-03-19T12:58:06.135Z,100540.59
2023-03-19T13:00:53.644Z,100540.22
2023-03-19T13:03:58.137Z,100536.75
2023-03-19T13:06:39.205Z,100541.13
2023-03-19T13:09:12.542Z,100552.88
2023-03-19T13:11:49.272Z,100543.75
2023-03-19T13:14:27.482Z,100549.00
2023-03-19T13:17:11.338Z,100545.69
2023-03-19T13:20:02.027Z,100541.97
2023-03-19T13:22:38.420Z,100548.06
2023-03-19T13:25:10.571Z,100543.81
2023-03-19T13:27:38.220Z,100541.38
2023-03-19T13:30:19.115Z,100550.63
2023-03-19T13:32:53.583Z,100539.88
2023-03-19T13:35:39.917Z,100542.97
2023-03-19T13:38:24.760Z,100538.19
2023-03-19T13:40:56.988Z,100535.81
2023-03-19T13:43:30.478Z,100536.84
2023-03-19T13:46:16.015Z,100519.69
2023-03-19T13:49:17.433Z,100528.81
2023-03-19T13:56:22.448Z,100531.63
2023-03-19T14:00:38.614Z,100523.31
2023-03-19T14:04:40.051Z,100522.78
2023-03-19T14:08:49.806Z,100517.94
2023-03-19T14:20:52.335Z,100507.78
2023-03-19T14:24:04.145Z,100499.94
2023-03-19T14:26:31.818Z,100506.97
2023-03-19T14:29:03.610Z,100508.75
2023-03-19T14:31:34.072Z,100503.06
2023-03-19T14:34:20.866Z,100506.38
2023-03-19T14:37:06.901Z,100499.31
2023-03-19T14:39:43.133Z,100507.25
2023-03-19T14:42:19.459Z,100491.03
2023-03-19T14:45:21.188Z,100495.78
2023-03-19T14:48:20.493Z,100489.03
2023-03-19T14:51:19.511Z,100496.06
2023-03-19T14:54:29.169Z,100486.94
2023-03-19T15:00:46.186Z,100494.16
2023-03-19T15:03:33.601Z,100484.84
2023-03-19T15:06:42.569Z,100490.56
2023-03-19T15:10:09.269Z,100484.25
2023-03-19T15:14:12.101Z,100490.91
2023-03-19T15:16:45.529Z,100488.50
2023-03-19T15:19:14.209Z,100495.34
2023-03-19T15:21:42.705Z,100491.16
2023-03-19T15:24:17.943Z,100497.81
2023-03-19T15:26:46.595Z,100493.84
2023-03-19T15:29:14.468Z,100484.91
2023-03-19T15:31:52.839Z,100480.84
2023-03-19T15:34:28.087Z,100489.91
2023-03-19T15:37:07.794Z,100488.31
2023-03-19T15:39:50.071Z,100497.19
2023-03-19T15:42:22.370Z,100486.38
2023-03-19T15:44:57.544Z,100495.91
2023-03-19T15:47:30.726Z,100493.13
2023-03-19T15:50:12.780Z,100490.13
2023-03-19T15:52:43.219Z,100490.38
2023-03-19T15:55:14.607Z,100483.97
2023-03-19T15:57:43.876Z,100490.63
2023-03-19T16:00:14.332Z,100479.22
2023-03-19T16:02:44.217Z,100485.09
2023-03-19T16:05:31.990Z,100475.69
2023-03-19T16:08:08.721Z,100485.97
2023-03-19T16:10:42.635Z,100489.84
2023-03-19T16:13:31.331Z,100487.75
2023-03-19T16:16:20.720Z,100488.88
2023-03-19T16:18:53.861Z,100486.88
2023-03-19T16:21:41.480Z,100479.66
2023-03-19T16:24:09.031Z,100479.81
2023-03-19T16:26:48.113Z,100491.06
2023-03-19T16:29:42.038Z,100491.94
2023-03-19T16:32:14.514Z,100487.09
2023-03-19T16:34:49.347Z,100489.44
2023-03-19T16:37:35.157Z,100490.88
2023-03-19T16:40:15.687Z,100490.22
2023-03-19T16:42:48.043Z,100477.16
2023-03-19T16:45:15.782Z,100489.56
2023-03-19T16:47:46.869Z,100479.28
2023-03-19T16:50:15.498Z,100487.78
2023-03-19T16:52:44.874Z,100479.59
2023-03-19T16:55:24.438Z,100479.69
2023-03-19T16:58:00.984Z,100488.78
2023-03-19T17:00:31.856Z,100481.47
2023-03-19T17:03:00.679Z,100479.91
2023-03-19T17:05:29.537Z,100480.59
2023-03-19T17:07:57.307Z,100473.28
2023-03-19T17:10:29.312Z,100477.69
2023-03-19T17:12:58.386Z,100470.50
2023-03-19T17:15:29.833Z,100482.78
2023-03-19T17:17:58.475Z,100485.22
2023-03-19T17:20:36.328Z,100480.91
2023-03-19T17:23:12.529Z,100481.34
2023-03-19T17:25:40.558Z,100480.25
2023-03-19T17:28:08.036Z,100481.78
2023-03-19T17:30:35.988Z,100471.38
2023-03-19T17:33:04.078Z,100468.38
2023-03-19T17:35:31.864Z,100480.22
2023-03-19T17:37:59.668Z,100478.19
2023-03-19T17:40:28.217Z,100479.84
2023-03-19T17:42:57.081Z,100471.56
2023-03-19T17:45:29.918Z,100474.34
2023-03-19T17:47:58.756Z,100470.69
2023-03-19T17:50:28.892Z,100467.91
2023-03-19T17:52:56.466Z,100459.16
2023-03-19T17:55:29.977Z,100467.66
2023-03-19T17:57:57.669Z,100463.78
2023-03-19T18:00:25.670Z,100467.25
2023-03-19T18:02:55.138Z,100463.69
2023-03-19T18:05:26.296Z,100462.69
2023-03-19T18:07:55.416Z,100461.81
2023-03-19T18:10:29.999Z,100466.88
2023-03-19T18:13:00.160Z,100461.22
2023-03-19T18:15:33.271Z,100452.47
2023-03-19T18:18:03.495Z,100455.78
2023-03-19T18:20:39.831Z,100465.41
2023-03-19T18:23:07.784Z,100454.69
2023-03-19T18:25:35.846Z,100462.31
2023-03-19T18:28:04.843Z,100455.22
2023-03-19T18:30:34.953Z,100456.88
2023-03-19T18:33:11.769Z,100454.22
2023-03-19T18:35:42.778Z,100455.66
2023-03-19T18:38:22.837Z,100458.03
2023-03-19T18:40:51.340Z,100455.19
2023-03-19T18:43:19.773Z,100460.88
2023-03-19T18:45:51.441Z,100457.25
2023-03-19T18:48:28.179Z,100451.28
2023-03-19T18:50:56.354Z,100454.22
2023-03-19T18:53:24.546Z,100455.78
2023-03-19T18:55:52.632Z,100455.00
2023-03-19T18:58:23.822Z,100444.47
2023-03-19T19:00:53.502Z,100450.34
2023-03-19T19:03:28.553Z,100449.34
2023-03-19T19:05:56.417Z,100452.53
2023-03-19T19:08:25.435Z,100448.22
2023-03-19T19:10:59.250Z,100448.97
2023-03-19T19:13:33.898Z,100448.97
2023-03-19T19:16:05.672Z,100448.75
2023-03-19T19:18:33.406Z,100437.59
2023-03-19T19:21:02.393Z,100448.38
2023-03-19T19:23:30.468Z,100445.22
2023-03-19T19:25:58.199Z,100443.44
2023-03-19T19:28:41.553Z,100435.28
2023-03-19T19:31:26.329Z,100444.56
2023-03-19T19:33:56.775Z,100435.84
2023-03-19T19:36:25.173Z,100426.19
2023-03-19T19:38:53.867Z,100426.97
2023-03-19T19:41:24.387Z,100430.16
2023-03-19T19:43:55.676Z,100438.66
2023-03-19T19:46:26.470Z,100440.94
2023-03-19T19:48:54.092Z,100441.72
2023-03-19T19:51:24.108Z,100438.94
2023-03-19T19:53:52.481Z,100434.66
2023-03-19T19:56:22.559Z,100438.06
2023-03-19T19:58:52.945Z,100434.41
2023-03-19T20:01:23.107Z,100433.63
2023-03-19T20:03:52.142Z,100427.81
2023-03-19T20:06:20.367Z,100424.13
2023-03-19T20:08:51.049Z,100431.63
2023-03-19T20:11:24.267Z,100416.91
2023-03-19T20:13:55.539Z,100423.66
2023-03-19T20:16:26.958Z,100430.38
2023-03-19T20:18:55.418Z,100425.19
2023-03-19T20:21:23.516Z,100422.44
2023-03-19T20:23:55.613Z,100430.66
2023-03-19T20:26:25.036Z,100427.13
2023-03-19T20:28:53.800Z,100433.75
2023-03-19T20:31:28.141Z,100429.56
2023-03-19T20:33:57.458Z,100429.28
2023-03-19T20:36:26.810Z,100430.84
2023-03-19T20:38:54.812Z,100425.88
2023-03-19T20:41:27.253Z,100419.56
2023-03-19T20:43:55.817Z,100427.19
2023-03-19T20:46:24.804Z,100425.16
2023-03-19T20:48:52.569Z,100416.66
2023-03-19T20:51:24.785Z,100422.41
2023-03-19T20:53:53.089Z,100418.09
2023-03-19T20:56:24.595Z,100423.94
2023-03-19T20:58:52.401Z,100408.84
2023-03-19T21:01:20.057Z,100415.72
2023-03-19T21:03:47.804Z,100418.09
2023-03-19T21:06:21.920Z,100420.53
2023-03-19T21:08:57.704Z,100404.72
2023-03-19T21:11:37.624Z,100417.88
2023-03-19T21:14:06.058Z,100411.44
2023-03-19T21:16:34.178Z,100410.78
2023-03-19T21:19:01.781Z,100398.63
2023-03-19T21:21:35.881Z,100396.59
2023-03-19T21:24:08.043Z,100405.97
2023-03-19T21:26:40.504Z,100400.03
2023-03-19T21:29:21.605Z,100409.16
2023-03-19T21:31:49.554Z,100409.06
2023-03-19T21:34:17.077Z,100404.75
2023-03-19T21:36:44.696Z,100411.34
2023-03-19T21:39:12.185Z,100407.16
2023-03-19T21:41:40.132Z,100399.31
2023-03-19T21:44:13.621Z,100404.47
2023-03-19T21:46:41.288Z,100402.72
2023-03-19T21:49:11.933Z,100408.44
2023-03-19T21:51:39.536Z,100405.53
2023-03-19T21:54:07.019Z,100395.81
2023-03-19T21:56:40.797Z,100404.41
2023-03-19T21:59:18.970Z,100407.72
2023-03-19T22:01:46.890Z,100400.50
2023-03-19T22:04:14.496Z,100402.38
2023-03-19T22:06:43.194Z,100401.75
2023-03-19T22:09:11.325Z,100395.03
2023-03-19T22:11:40.962Z,100404.41
2023-03-19T22:14:14.550Z,100396.03
2023-03-19T22:16:42.600Z,100394.50
2023-03-19T22:19:19.285Z,100399.47
2023-03-19T22:21:47.724Z,100394.91
2023-03-19T22:24:15.504Z,100386.28
2023-03-19T22:26:44.417Z,100391.34
2023-03-19T22:29:22.190Z,100385.66
2023-03-19T22:31:55.029Z,100384.63
2023-03-19T22:34:26.113Z,100390.84
2023-03-19T22:36:54.046Z,100391.25
2023-03-19T22:39:21.656Z,100393.66
2023-03-19T22:41:49.832Z,100394.91
2023-03-19T22:44:28.218Z,100386.56
2023-03-19T22:46:57.618Z,100380.25
2023-03-19T22:49:25.542Z,100385.31
2023-03-19T22:51:53.154Z,100376.56
2023-03-19T22:54:20.628Z,100376.56
2023-03-19T22:56:48.140Z,100365.22
2023-03-19T22:59:16.149Z,100368.47
2023-03-19T23:01:46.504Z,100361.41
2023-03-19T23:04:24.634Z,100368.63
2023-03-19T23:06:54.180Z,100360.25
2023-03-19T23:09:33.531Z,100368.09
2023-03-19T23:12:02.533Z,100363.28
2023-03-19T23:14:31.455Z,100368.88
2023-03-19T23:17:03.601Z,100369.78
2023-03-19T23:19:34.068Z,100369.66
2023-03-19T23:22:03.409Z,100366.97
2023-03-19T23:24:31.356Z,100366.84
2023-03-19T23:27:00.620Z,100355.72
2023-03-19T23:29:37.533Z,100357.88
2023-03-19T23:32:05.983Z,100356.72
2023-03-19T23:34:42.503Z,100350.38
2023-03-19T23:37:18.336Z,100356.88
2023-03-19T23:39:47.700Z,100355.09
2023-03-19T23:42:27.803Z,100359.03
2023-03-19T23:44:58.075Z,100347.63
2023-03-19T23:47:26.909Z,100336.72
2023-03-19T23:49:54.488Z,100351.44
2023-03-19T23:52:22.058Z,100349.66
2023-03-19T23:54:49.568Z,100348.78
2023-03-19T23:57:17.473Z,100346.75
2023-03-19T23:59:49.898Z,100355.09
